createdAt,value
2023-08-27T00:00:28.185Z,20.17
2023-08-27T00:06:09.881Z,20.06
2023-08-27T00:11:31.084Z,19.83
2023-08-27T00:16:51.911Z,19.73
2023-08-27T00:22:12.562Z,19.68
2023-08-27T00:27:35.174Z,19.62
2023-08-27T00:32:56.176Z,19.51
2023-08-27T00:38:16.824Z,19.44
2023-08-27T00:43:37.684Z,19.37
2023-08-27T00:48:58.654Z,19.32
2023-08-27T00:54:19.215Z,19.25
2023-08-27T00:59:39.934Z,19.12
2023-08-27T01:05:00.557Z,19.08
2023-08-27T01:10:37.436Z,19.04
2023-08-27T01:16:01.941Z,19.02
2023-08-27T01:21:26.243Z,19.04
2023-08-27T01:27:08.348Z,19.02
2023-08-27T01:32:32.564Z,19.01
2023-08-27T01:37:53.501Z,18.93
2023-08-27T01:43:14.136Z,19.00
2023-08-27T01:48:34.742Z,19.03
2023-08-27T01:53:55.315Z,19.04
2023-08-27T01:59:16.128Z,19.01
2023-08-27T02:04:36.664Z,18.97
2023-08-27T02:09:57.617Z,18.93
2023-08-27T02:15:19.179Z,18.80
2023-08-27T02:20:39.902Z,18.67
2023-08-27T02:26:00.764Z,18.57
2023-08-27T02:31:21.516Z,18.50
2023-08-27T02:36:42.228Z,18.44
2023-08-27T02:42:03.897Z,18.37
2023-08-27T02:47:26.453Z,18.32
2023-08-27T02:52:48.679Z,18.28
2023-08-27T02:58:09.409Z,18.23
2023-08-27T03:03:30.304Z,18.25
2023-08-27T03:08:52.502Z,18.21
2023-08-27T03:14:13.333Z,18.13
2023-08-27T03:19:34.032Z,18.15
2023-08-27T03:24:55.873Z,18.16
2023-08-27T03:30:16.486Z,18.18
2023-08-27T03:35:37.420Z,18.20
2023-08-27T03:40:58.506Z,18.21
2023-08-27T03:46:19.380Z,18.30
2023-08-27T03:51:40.205Z,18.36
2023-08-27T03:57:00.821Z,18.43
2023-08-27T04:02:21.555Z,18.45
2023-08-27T04:07:42.183Z,18.40
2023-08-27T04:13:03.166Z,18.46
2023-08-27T04:18:23.697Z,18.58
2023-08-27T04:23:45.074Z,18.69
2023-08-27T04:29:05.747Z,18.80
2023-08-27T04:34:26.504Z,18.89
2023-08-27T04:39:47.521Z,18.94
2023-08-27T04:45:10.227Z,18.92
2023-08-27T04:50:30.845Z,19.03
2023-08-27T04:55:51.432Z,19.15
2023-08-27T05:01:12.255Z,19.20
2023-08-27T05:06:32.822Z,19.25
2023-08-27T05:11:53.778Z,19.24
2023-08-27T05:17:14.704Z,19.28
2023-08-27T05:22:35.575Z,19.38
2023-08-27T05:27:56.405Z,19.47
2023-08-27T05:33:17.321Z,19.59
2023-08-27T05:38:38.511Z,19.76
2023-08-27T05:43:59.823Z,19.82
2023-08-27T05:49:20.359Z,19.98
2023-08-27T05:54:41.031Z,20.02
2023-08-27T06:00:01.804Z,19.91
2023-08-27T06:05:22.406Z,19.82
2023-08-27T06:10:43.121Z,19.78
2023-08-27T06:16:04.647Z,19.88
2023-08-27T06:21:25.640Z,19.93
2023-08-27T06:26:46.298Z,20.04
2023-08-27T06:32:07.102Z,20.11
2023-08-27T06:37:29.793Z,20.19
2023-08-27T06:42:50.686Z,20.35
2023-08-27T06:48:17.061Z,20.43
2023-08-27T06:53:39.793Z,20.40
2023-08-27T06:59:00.595Z,20.47
2023-08-27T07:04:21.362Z,20.44
2023-08-27T07:09:42.172Z,20.17
2023-08-27T07:15:03.638Z,20.12
2023-08-27T07:20:24.407Z,20.23
2023-08-27T07:25:45.929Z,20.24
2023-08-27T07:31:06.835Z,20.25
2023-08-27T07:36:27.641Z,20.31
2023-08-27T07:41:50.329Z,20.32
2023-08-27T07:47:11.036Z,20.46
2023-08-27T07:52:32.377Z,20.65
2023-08-27T07:57:53.073Z,20.67
2023-08-27T08:03:13.824Z,20.66
2023-08-27T08:08:35.196Z,20.62
2023-08-27T08:13:55.999Z,20.81
2023-08-27T08:19:16.598Z,21.32
2023-08-27T08:24:37.340Z,21.99
2023-08-27T08:29:58.138Z,23.10
2023-08-27T08:35:19.133Z,23.28
2023-08-27T08:40:46.709Z,23.01
2023-08-27T08:46:07.813Z,22.75
2023-08-27T08:51:30.751Z,22.36
2023-08-27T08:56:53.015Z,22.09
2023-08-27T09:02:13.900Z,21.83
2023-08-27T09:07:34.652Z,21.77
2023-08-27T09:12:58.290Z,21.84
2023-08-27T09:18:18.977Z,21.82
2023-08-27T09:23:39.777Z,21.95
2023-08-27T09:29:02.307Z,22.19
2023-08-27T09:34:23.166Z,22.23
2023-08-27T09:39:45.943Z,22.24
2023-08-27T09:45:07.242Z,22.13
2023-08-27T09:50:31.248Z,21.90
2023-08-27T09:55:51.962Z,21.89
2023-08-27T10:01:12.718Z,22.08
2023-08-27T10:06:37.035Z,22.09
2023-08-27T10:11:57.982Z,21.99
2023-08-27T10:17:18.993Z,22.22
2023-08-27T10:22:39.923Z,22.46
2023-08-27T10:28:00.900Z,22.48
2023-08-27T10:33:21.746Z,22.64
2023-08-27T10:38:42.566Z,22.59
2023-08-27T10:44:03.622Z,22.17
2023-08-27T10:49:24.682Z,21.86
2023-08-27T10:54:49.885Z,21.65
2023-08-27T11:00:13.633Z,21.40
2023-08-27T11:05:34.643Z,21.50
2023-08-27T11:10:55.503Z,21.71
2023-08-27T11:16:16.618Z,21.90
2023-08-27T11:21:46.737Z,22.32
2023-08-27T11:27:07.643Z,22.66
2023-08-27T11:32:28.368Z,23.02
2023-08-27T11:37:49.044Z,23.10
2023-08-27T11:43:09.830Z,22.87
2023-08-27T11:48:30.572Z,22.94
2023-08-27T11:53:52.105Z,23.13
2023-08-27T11:59:14.487Z,22.85
2023-08-27T12:04:35.254Z,22.44
2023-08-27T12:09:56.073Z,22.10
2023-08-27T12:15:16.936Z,22.15
2023-08-27T12:20:38.361Z,22.33
2023-08-27T12:25:59.762Z,22.37
2023-08-27T12:31:25.305Z,21.98
2023-08-27T12:36:46.407Z,21.96
2023-08-27T12:42:07.604Z,21.93
2023-08-27T12:47:28.383Z,21.87
2023-08-27T12:52:49.306Z,21.72
2023-08-27T12:58:10.382Z,21.78
2023-08-27T13:03:31.214Z,21.78
2023-08-27T13:08:51.700Z,21.83
2023-08-27T13:14:12.892Z,22.28
2023-08-27T13:19:33.921Z,22.84
2023-08-27T13:24:54.582Z,23.01
2023-08-27T13:30:15.174Z,22.89
2023-08-27T13:35:35.962Z,22.70
2023-08-27T13:40:57.219Z,22.70
2023-08-27T13:46:18.349Z,22.78
2023-08-27T13:51:39.155Z,22.18
2023-08-27T13:56:59.762Z,21.78
2023-08-27T14:02:20.716Z,21.65
2023-08-27T14:07:41.309Z,21.44
2023-08-27T14:13:01.993Z,21.29
2023-08-27T14:18:22.680Z,21.37
2023-08-27T14:23:43.327Z,21.14
2023-08-27T14:29:04.995Z,20.75
2023-08-27T14:34:27.925Z,20.46
2023-08-27T14:39:49.658Z,20.14
2023-08-27T14:45:10.469Z,20.25
2023-08-27T14:50:31.240Z,20.42
2023-08-27T14:55:51.917Z,20.23
2023-08-27T15:01:12.907Z,19.90
2023-08-27T15:06:33.602Z,19.72
2023-08-27T15:11:54.289Z,19.70
2023-08-27T15:17:15.749Z,19.80
2023-08-27T15:22:36.489Z,19.72
2023-08-27T15:27:56.866Z,19.75
2023-08-27T15:33:17.631Z,19.92
2023-08-27T15:38:38.353Z,20.07
2023-08-27T15:44:02.390Z,20.09
2023-08-27T15:49:23.880Z,20.04
2023-08-27T15:54:44.572Z,19.90
2023-08-27T16:00:07.714Z,20.05
2023-08-27T16:05:32.629Z,20.21
2023-08-27T16:10:53.323Z,20.16
2023-08-27T16:16:14.193Z,20.05
2023-08-27T16:21:35.721Z,20.03
2023-08-27T16:26:56.287Z,20.07
2023-08-27T16:32:17.007Z,20.07
2023-08-27T16:37:37.825Z,19.97
2023-08-27T16:42:58.456Z,19.99
2023-08-27T16:48:19.072Z,19.97
2023-08-27T16:53:39.831Z,20.07
2023-08-27T16:59:00.465Z,20.18
2023-08-27T17:04:21.741Z,20.21
2023-08-27T17:09:42.257Z,20.06
2023-08-27T17:15:04.318Z,19.82
2023-08-27T17:20:25.087Z,19.68
2023-08-27T17:25:45.809Z,19.68
2023-08-27T17:31:06.919Z,19.72
2023-08-27T17:36:28.104Z,19.70
2023-08-27T17:41:51.818Z,19.65
2023-08-27T17:47:12.951Z,19.61
2023-08-27T17:52:33.939Z,19.53
2023-08-27T17:57:54.573Z,19.41
2023-08-27T18:03:15.433Z,19.23
2023-08-27T18:08:36.052Z,19.12
2023-08-27T18:13:57.018Z,19.04
2023-08-27T18:19:18.677Z,18.93
2023-08-27T18:24:39.458Z,18.80
2023-08-27T18:30:00.413Z,18.78
2023-08-27T18:35:21.084Z,18.78
2023-08-27T18:40:41.752Z,18.75
2023-08-27T18:46:02.493Z,18.69
2023-08-27T18:51:23.224Z,18.66
2023-08-27T18:56:43.957Z,18.66
2023-08-27T19:02:06.154Z,18.62
2023-08-27T19:07:26.869Z,18.64
2023-08-27T19:12:47.569Z,18.65
2023-08-27T19:18:08.578Z,18.66
2023-08-27T19:23:30.200Z,18.69
2023-08-27T19:28:51.138Z,18.66
2023-08-27T19:34:11.761Z,18.67
2023-08-27T19:39:32.361Z,18.63
2023-08-27T19:44:53.078Z,18.56
2023-08-27T19:50:13.973Z,18.57
2023-08-27T19:55:34.656Z,18.50
2023-08-27T20:00:59.013Z,18.45
2023-08-27T20:06:19.756Z,18.39
2023-08-27T20:11:40.522Z,18.37
2023-08-27T20:17:01.212Z,18.35
2023-08-27T20:22:24.961Z,18.26
2023-08-27T20:27:45.698Z,18.22
2023-08-27T20:33:06.538Z,18.16
2023-08-27T20:38:27.310Z,18.13
2023-08-27T20:43:48.841Z,18.12
2023-08-27T20:49:09.786Z,18.07
2023-08-27T20:54:30.433Z,18.05
2023-08-27T20:59:51.111Z,18.00
2023-08-27T21:05:11.776Z,17.99
2023-08-27T21:10:32.365Z,17.95
2023-08-27T21:15:54.606Z,17.90
2023-08-27T21:21:16.047Z,17.87
2023-08-27T21:26:36.746Z,17.83
2023-08-27T21:31:57.474Z,17.80
2023-08-27T21:37:18.228Z,17.76
2023-08-27T21:42:38.948Z,17.69
2023-08-27T21:47:59.613Z,17.68
2023-08-27T21:53:20.348Z,17.71
2023-08-27T21:58:41.367Z,17.68
2023-08-27T22:04:02.672Z,17.69
2023-08-27T22:09:23.447Z,17.66
2023-08-27T22:14:45.801Z,17.68
2023-08-27T22:20:07.755Z,17.60
2023-08-27T22:25:28.640Z,17.55
2023-08-27T22:30:49.347Z,17.48
2023-08-27T22:36:09.975Z,17.41
2023-08-27T22:41:30.528Z,17.42
2023-08-27T22:46:51.337Z,17.41
2023-08-27T22:52:11.942Z,17.41
2023-08-27T22:57:33.179Z,17.37
2023-08-27T23:02:53.958Z,17.32
2023-08-27T23:08:14.765Z,17.29
2023-08-27T23:13:35.681Z,17.28
2023-08-27T23:18:56.941Z,17.28
2023-08-27T23:24:19.165Z,17.21
2023-08-27T23:29:43.080Z,17.17
2023-08-27T23:35:05.301Z,17.19
2023-08-27T23:40:26.346Z,17.16
2023-08-27T23:45:46.956Z,17.12
2023-08-27T23:51:07.781Z,17.09
2023-08-27T23:56:28.387Z,17.07
